Latest Weather Observations for Orange Airport

IDN60801

Issued at 11:05 pm EDT Wednesday 22 October 2014 (issued every 30 minutes, with the page automatically refreshed every 10 minutes)

About weather observations | Map of weather stations | Latest weather observations for NSW | Other Formats
Station Details ID: 063303 Name: ORANGE AIRPORT AWS Lat: -33.38 Lon: 149.13 Height: 947.4 m
Data from the previous 72 hours. | See also: Recent months at Orange Airport
Date/Time
EDT
Temp
°C
App
Temp
°C
Dew
Point
Rel
Hum
%
Delta-T
°C
Wind Press
QNH
hPa
Press
MSL
hPa
Rain
since 9 am
mm
Dir
 
Spd
km/h
Gust
km/h
Spd
kts
Gust
kts
22/11:00pm 11.3 11.2 9.4 88 1.0 N 0 0 0 0 1022.9 1021.4 -
22/10:30pm 12.2 12.6 11.1 93 0.6 N 0 0 0 0 1022.9 1021.4 -
22/10:00pm 12.3 12.4 10.0 86 1.2 CALM 0 0 0 0 1023.0 1021.5 -
22/09:30pm 12.9 13.2 11.0 88 1.0 CALM 0 0 0 0 1023.0 1021.5 -
22/09:00pm 13.1 13.3 10.5 84 1.4 CALM 0 0 0 0 1022.9 1021.4 -
22/08:30pm 15.5 15.9 11.3 76 2.4 CALM 0 0 0 0 1022.7 1021.1 -
22/08:00pm 14.6 14.5 9.6 72 2.7 CALM 0 0 0 0 1022.3 1020.8 -
22/07:30pm 17.2 17.1 10.8 66 3.6 N 2 6 1 3 1022.2 1020.7 -
22/07:00pm 18.7 17.4 11.3 62 4.2 N 9 11 5 6 1022.1 1020.6 -
22/06:30pm 20.0 19.1 12.5 62 4.4 NNW 9 11 5 6 1022.2 1020.7 -
22/06:00pm 20.9 19.5 12.3 58 5.0 NNW 11 15 6 8 1022.3 1020.8 -
22/09:30am 11.3 7.9 9.0 86 1.2 NNE 17 22 9 12 1026.7 1025.3 0.0
22/09:00am 10.2 7.2 9.1 93 0.6 NE 15 19 8 10 1026.6 1025.2 -
22/08:41am 9.8 6.7 8.7 93 0.6 ENE 15 19 8 10 1026.5 1025.1 -
22/08:30am 9.5 6.7 8.4 93 0.6 ENE 13 17 7 9 1026.3 1024.8 -
22/08:00am 8.4 5.7 7.3 93 0.5 NE 11 13 6 7 1026.4 1024.9 -
22/07:30am 7.4 4.1 6.3 93 0.5 NE 13 19 7 10 1026.5 1025.1 -
22/07:00am 6.9 3.5 5.8 93 0.5 ENE 13 17 7 9 1026.5 1025.1 -
22/06:56am 6.8 3.7 5.7 93 0.5 NE 11 15 6 8 1026.5 1025.1 -
22/06:30am 5.8 2.9 4.8 93 0.5 NE 9 13 5 7 1026.3 1024.8 -
22/06:00am 5.0 2.0 4.0 93 0.4 ENE 9 13 5 7 1025.9 1024.5 -
22/05:30am 5.4 2.8 4.4 93 0.5 ENE 7 11 4 6 1025.9 1024.5 -
22/05:21am 5.3 2.3 4.3 93 0.5 ENE 9 13 5 7 1025.8 1024.4 -
22/05:00am 5.7 2.8 4.7 93 0.5 ENE 9 11 5 6 1025.8 1024.4 -
22/04:39am 5.8 2.5 4.8 93 0.5 ENE 11 15 6 8 1025.8 1024.4 -
22/04:30am 5.6 2.3 4.6 93 0.5 ENE 11 15 6 8 1025.7 1024.3 -
22/04:00am 5.5 2.2 4.5 93 0.5 E 11 17 6 9 1025.9 1024.9 -
22/03:30am 5.7 2.4 4.7 93 0.5 ENE 11 13 6 7 1026.4 1025.3 -
22/03:00am 6.0 2.8 5.0 93 0.5 E 11 15 6 8 1026.8 1025.8 0.0
22/02:30am 5.4 2.5 4.4 93 0.5 ENE 9 15 5 8 1027.0 1026.0 -
22/02:00am 6.1 3.3 5.1 93 0.5 ENE 9 13 5 7 1027.5 1026.4 -
22/01:30am 6.4 2.9 5.4 93 0.5 ENE 13 15 7 8 1028.0 1027.0 -
22/01:00am 6.8 3.4 5.7 93 0.5 ENE 13 17 7 9 1028.2 1027.2 -
22/12:30am 6.9 3.5 5.8 93 0.5 ENE 13 19 7 10 1028.8 1027.8 -
22/12:00am 7.3 4.0 6.2 93 0.5 ENE 13 19 7 10 1029.0 1028.0 -
 
Date/Time
EDT
Temp
°C
App
Temp
°C
Dew
Point
Rel
Hum
%
Delta-T
°C
Wind Press
QNH
hPa
Press
MSL
hPa
Rain
since 9 am
mm
Dir
 
Spd
km/h
Gust
km/h
Spd
kts
Gust
kts
21/11:30pm 7.6 3.6 6.5 93 0.5 ENE 17 20 9 11 1029.1 1028.1 -
21/11:00pm 7.9 3.9 6.8 93 0.5 ENE 17 24 9 13 1029.2 1028.2 -
21/10:30pm 8.3 4.4 7.2 93 0.5 ENE 17 24 9 13 1029.8 1028.4 -
21/10:00pm 8.5 4.3 7.4 93 0.5 ENE 19 24 10 13 1029.8 1028.4 -
21/09:30pm 8.9 5.2 7.8 93 0.6 ENE 17 24 9 13 1029.5 1028.1 -
21/09:00pm 9.4 6.2 8.3 93 0.6 ENE 15 19 8 10 1029.4 1028.0 0.0
21/08:30pm 10.0 6.9 8.8 92 0.6 E 15 20 8 11 1029.2 1027.8 -
21/08:00pm 10.7 8.0 8.8 88 1.0 E 13 20 7 11 1028.8 1027.4 -
21/07:30pm 11.9 9.2 8.9 82 1.6 ENE 13 15 7 8 1028.6 1027.2 -
21/07:00pm 13.6 10.2 9.3 75 2.3 NE 17 20 9 11 1028.2 1026.8 -
21/06:30pm 15.3 11.8 10.3 72 2.8 E 19 26 10 14 1027.9 1026.4 -
21/06:00pm 15.9 11.5 10.4 70 3.0 E 24 30 13 16 1027.9 1026.4 -
21/05:30pm 17.4 14.4 10.8 65 3.7 E 17 26 9 14 1027.9 1026.4 -
21/05:00pm 17.7 15.6 11.3 66 3.6 ENE 13 24 7 13 1027.9 1026.4 -
21/04:30pm 17.1 14.7 10.2 64 3.8 ENE 13 19 7 10 1027.7 1026.3 -
21/04:00pm 17.2 14.5 10.3 64 3.8 E 15 22 8 12 1028.0 1026.5 -
21/03:30pm 17.6 15.4 10.7 64 3.9 ENE 13 19 7 10 1028.2 1026.8 -
21/03:00pm 16.7 13.4 9.6 63 3.9 NE 17 22 9 12 1028.5 1027.1 -
21/02:30pm 17.3 15.1 10.7 65 3.7 NNE 13 20 7 11 1028.8 1027.4 -
21/02:00pm 17.4 14.6 11.2 67 3.5 ENE 17 24 9 13 1029.2 1027.8 -
21/01:30pm 16.3 13.0 9.7 65 3.6 ENE 17 24 9 13 1029.6 1028.2 -
21/01:00pm 16.3 12.8 11.0 71 3.0 ENE 20 28 11 15 1029.8 1028.4 -
21/12:30pm 15.9 12.0 10.9 72 2.8 ENE 22 28 12 15 1030.3 1028.9 -
21/12:00pm 15.1 11.0 10.1 72 2.7 ENE 22 32 12 17 1030.5 1029.1 -
21/11:30am 14.8 10.0 10.2 74 2.5 NE 26 32 14 17 1030.9 1029.6 0.0
21/11:00am 14.3 9.8 10.1 76 2.3 NE 24 30 13 16 1031.1 1029.8 0.0
21/10:43am 14.0 9.6 10.4 79 2.0 ENE 24 32 13 17 1031.1 1029.8 0.0
21/10:30am 13.4 8.4 9.6 78 2.0 ENE 26 32 14 17 1031.3 1029.9 0.0
21/10:00am 12.6 8.3 9.4 81 1.7 ENE 22 30 12 16 1031.3 1029.9 0.0
21/09:52am 12.9 8.9 10.3 84 1.4 ENE 22 28 12 15 1031.3 1029.9 0.0
21/09:47am 12.3 7.7 9.7 84 1.4 ENE 24 32 13 17 1031.1 1029.8 0.0
21/09:30am 12.3 7.7 9.5 83 1.5 NE 24 32 13 17 1031.3 1029.9 0.0
21/09:00am 10.6 4.9 8.2 85 1.2 NE 28 35 15 19 1030.9 1029.6 0.0
21/08:32am 10.2 5.2 8.1 87 1.1 NE 24 32 13 17 1030.6 1029.2 0.0
21/08:30am 10.3 5.4 8.4 88 1.0 NE 24 30 13 16 1030.6 1029.2 0.0
21/08:00am 9.7 5.6 8.0 89 0.9 NE 19 24 10 13 1030.2 1028.8 0.0
21/07:30am 9.0 4.9 7.8 92 0.6 ENE 19 24 10 13 1029.8 1028.4 0.0
21/07:00am 8.1 4.2 7.0 93 0.5 ENE 17 20 9 11 1029.5 1028.1 0.0
21/06:30am 7.2 3.5 6.1 93 0.5 ENE 15 19 8 10 1029.2 1027.8 0.0
21/06:00am 7.2 3.5 6.1 93 0.5 ENE 15 20 8 11 1028.9 1027.6 0.0
21/05:30am 7.3 3.2 6.2 93 0.5 ENE 17 22 9 12 1028.8 1027.4 0.0
21/05:00am 7.4 2.9 6.3 93 0.5 ENE 19 26 10 14 1028.6 1027.2 0.0
21/04:30am 7.5 3.4 6.4 93 0.5 ENE 17 26 9 14 1028.6 1027.2 0.0
21/04:00am 7.4 3.3 6.3 93 0.5 ENE 17 22 9 12 1028.6 1027.2 0.0
21/03:30am 7.4 3.7 6.3 93 0.5 ENE 15 20 8 11 1028.8 1027.4 0.0
21/03:00am 7.5 3.4 6.4 93 0.5 ENE 17 20 9 11 1028.8 1027.4 0.0
21/02:30am 7.5 3.8 6.4 93 0.5 ENE 15 20 8 11 1028.9 1027.6 0.0
21/02:00am 7.6 3.6 6.5 93 0.5 ENE 17 24 9 13 1029.1 1027.7 0.0
21/01:30am 8.0 3.7 6.9 93 0.5 ENE 19 26 10 14 1029.4 1028.0 0.0
21/01:00am 8.3 3.9 7.2 93 0.5 E 20 32 11 17 1029.4 1028.0 0.0
21/12:30am 8.3 3.9 7.2 93 0.5 E 20 28 11 15 1029.5 1028.1 0.0
21/12:00am 8.6 4.2 7.5 93 0.5 E 20 30 11 16 1029.6 1028.2 0.0
 
Date/Time
EDT
Temp
°C
App
Temp
°C
Dew
Point
Rel
Hum
%
Delta-T
°C
Wind Press
QNH
hPa
Press
MSL
hPa
Rain
since 9 am
mm
Dir
 
Spd
km/h
Gust
km/h
Spd
kts
Gust
kts
20/11:30pm 8.7 4.3 7.6 93 0.6 E 20 26 11 14 1029.7 1028.3 0.0
20/11:00pm 8.9 4.6 7.8 93 0.6 E 20 28 11 15 1029.7 1028.3 0.0
20/10:30pm 9.3 5.1 8.2 93 0.6 E 20 28 11 15 1029.5 1028.1 0.0
20/10:00pm 9.6 5.5 8.5 93 0.6 E 20 28 11 15 1029.5 1028.1 0.0
20/09:30pm 10.0 6.2 8.9 93 0.6 E 19 28 10 15 1029.3 1027.9 0.0
20/09:00pm 10.3 6.0 9.2 93 0.6 E 22 30 12 16 1028.9 1027.6 0.0
20/08:30pm 10.8 6.8 9.2 90 0.8 E 20 26 11 14 1028.6 1027.2 0.0
20/08:00pm 11.6 6.9 9.3 86 1.2 E 24 32 13 17 1028.0 1026.5 0.0
20/07:30pm 12.3 7.7 9.5 83 1.5 E 24 35 13 19 1027.7 1026.3 0.0
20/07:00pm 13.1 7.8 9.7 80 1.8 E 28 39 15 21 1027.5 1026.1 0.0
20/06:30pm 14.8 10.0 10.4 75 2.4 E 26 37 14 20 1027.3 1025.9 0.0
20/06:00pm 16.6 11.8 11.5 72 2.9 E 28 35 15 19 1027.1 1025.7 0.0
20/05:30pm 18.4 14.7 12.6 69 3.4 E 24 32 13 17 1027.0 1025.5 0.0
20/05:00pm 19.8 16.7 13.5 67 3.7 E 22 28 12 15 1026.8 1025.3 0.0
20/04:30pm 20.9 17.5 13.8 64 4.3 E 24 33 13 18 1026.4 1025.0 0.0
20/04:00pm 24.5 22.8 3.8 26 10.6 WSW 2 9 1 5 1026.4 1025.0 0.0
20/03:30pm 24.1 23.4 6.8 33 9.4 CALM 0 6 0 3 1026.6 1025.2 0.0
20/03:00pm 23.5 20.6 4.5 29 9.8 WSW 9 13 5 7 1027.1 1025.7 0.0
20/02:30pm 23.2 20.5 5.6 32 9.3 SSW 9 17 5 9 1027.3 1025.9 0.0
20/02:00pm 23.0 20.6 7.1 36 8.6 S 9 19 5 10 1027.7 1026.3 0.0
20/01:30pm 23.0 20.4 6.3 34 8.9 S 9 15 5 8 1028.0 1026.5 0.0
20/01:00pm 22.9 20.1 7.0 36 8.6 SSW 11 19 6 10 1028.2 1026.8 0.0
20/12:30pm 22.5 19.2 6.3 35 8.6 SSW 13 20 7 11 1028.4 1027.0 0.0
20/12:00pm 22.4 19.1 6.6 36 8.4 SW 13 20 7 11 1028.6 1027.2 0.0
20/11:30am 22.3 18.9 6.1 35 8.6 SSW 13 17 7 9 1028.7 1027.3 0.0
20/11:00am 21.7 18.5 6.8 38 7.9 SW 13 19 7 10 1028.7 1027.3 0.0
20/10:30am 21.9 18.7 4.9 33 8.8 WSW 11 17 6 9 1028.8 1027.4 0.0
20/10:00am 22.2 20.0 6.4 36 8.4 WSW 7 11 4 6 1028.7 1027.3 0.0
20/09:30am 21.6 19.4 6.3 37 8.1 W 7 11 4 6 1028.4 1027.0 0.0
20/09:00am 20.6 19.1 8.6 46 6.6 WSW 6 9 3 5 1028.1 1026.7 0.0
20/08:30am 19.1 18.4 10.1 56 5.0 WNW 4 7 2 4 1027.9 1026.4 0.0
20/08:00am 14.1 14.3 10.7 80 1.9 CALM 0 6 0 3 1027.6 1026.2 0.0
20/07:30am 11.1 10.4 7.0 76 2.1 CALM 0 0 0 0 1027.4 1026.0 0.0
20/07:00am 8.5 7.5 5.6 82 1.4 CALM 0 0 0 0 1027.2 1025.8 0.0
20/06:30am 8.0 6.8 4.8 80 1.5 CALM 0 0 0 0 1026.8 1025.3 0.0
20/06:00am 7.7 6.4 3.9 77 1.7 CALM 0 0 0 0 1026.3 1024.9 0.0
20/05:30am 11.9 10.7 4.4 60 3.6 CALM 0 6 0 3 1025.9 1024.4 0.0
20/05:00am 11.1 9.9 4.6 64 3.1 CALM 0 0 0 0 1025.8 1024.3 0.0
20/04:30am 10.7 9.7 5.7 71 2.4 CALM 0 0 0 0 1025.9 1024.4 0.0
20/04:00am 9.0 8.0 5.6 79 1.6 CALM 0 0 0 0 1026.0 1024.5 0.0
20/03:30am 9.9 9.3 7.3 84 1.3 CALM 0 0 0 0 1026.1 1024.6 0.0
20/03:00am 8.5 7.8 6.8 89 0.8 CALM 0 0 0 0 1026.5 1025.1 0.0
20/02:30am 8.6 7.7 6.1 84 1.2 CALM 0 0 0 0 1026.6 1025.2 0.0
20/02:00am 8.5 7.4 5.1 79 1.6 CALM 0 0 0 0 1026.9 1025.4 0.0
20/01:30am 13.0 12.1 9.3 78 2.0 NW 4 7 2 4 1027.0 1025.5 0.0
20/01:00am 8.6 7.8 6.4 86 1.1 CALM 0 0 0 0 1027.3 1025.9 0.0
20/12:30am 9.0 6.9 5.9 81 1.5 W 6 7 3 4 1027.5 1026.1 0.0
20/12:00am 11.8 10.2 8.1 78 1.9 WNW 6 9 3 5 1027.6 1026.2 0.0
 
Date/Time
EDT
Temp
°C
App
Temp
°C
Dew
Point
Rel
Hum
%
Delta-T
°C
Wind Press
QNH
hPa
Press
MSL
hPa
Rain
since 9 am
mm
Dir
 
Spd
km/h
Gust
km/h
Spd
kts
Gust
kts
19/11:30pm 9.1 8.3 6.4 83 1.3 CALM 0 0 0 0 1027.7 1026.3 0.0

Other Formats:

Comma delimited format used in spreadsheet applications
http://www.bom.gov.au/fwo/IDN60801/IDN60801.95726.axf

JavaScript Object Notation format (JSON) in row-major order
http://www.bom.gov.au/fwo/IDN60801/IDN60801.95726.json